Kunming Changshui International Airport

ZPPP · Yunnan, China

METAR history ZPPP · Kunming Changshui International Airport

Below you see METARs of the last few days. Select a year to browse through older METARs, from the year 2007 onwards.

May 25, 2024

Time Code Weather Temp. Visibility Ceiling Wind METAR/SPECI
15:00
V
25 °C 10 km+ 3,600 ft 210° 210° 7 kt METAR ZPPP 250700Z 21004MPS 180V240 9999 FEW026TCU SCT026 BKN036 25/14 Q1017 NOSIG
14:00
V
25 °C 10 km+ 3,600 ft 200° 200° 9 kt METAR ZPPP 250600Z 20005MPS 150V240 9999 FEW026TCU SCT026 BKN036 25/14 Q1018 NOSIG
13:00
V
23 °C 10 km+ 3,600 ft 220° 220° 11 kt METAR ZPPP 250500Z 22006MPS 170V250 9999 SCT026 BKN036 23/14 Q1020 NOSIG
12:00
V
22 °C 10 km+ 3,600 ft 210° 210° 11 kt METAR ZPPP 250400Z 21006MPS 180V240 9999 SCT026 BKN036 22/15 Q1020 NOSIG
11:00
V
21 °C 10 km+ 3,600 ft 210° 210° 11 kt METAR ZPPP 250300Z 21006MPS 170V240 9999 SCT026 BKN036 21/15 Q1021 NOSIG
10:00
V
20 °C 10 km+ 3,600 ft 200° 200° 7 kt METAR ZPPP 250200Z 20004MPS 150V220 9999 SCT026 BKN036 20/15 Q1021 NOSIG
09:00
V
19 °C 10 km+ 3,600 ft 210° 210° 9 kt METAR ZPPP 250100Z 21005MPS 9999 SCT020 BKN036 19/15 Q1021 NOSIG
08:00
V
19 °C 10 km+ 3,600 ft 200° 200° 11 kt METAR ZPPP 250000Z 20006MPS 9999 SCT023 BKN036 19/15 Q1021 NOSIG
07:00
M
18 °C 10 km+ 2,300 ft 220° 220° 9 kt METAR ZPPP 242300Z 22005MPS 9999 BKN023 SCT036 18/15 Q1020 NOSIG
06:00
V
17 °C 10 km+ - 210° 210° 7 kt METAR ZPPP 242200Z 21004MPS 9999 SCT023 SCT036 17/15 Q1020 NOSIG
05:00
V
18 °C 10 km+ 3,600 ft 210° 210° 9 kt METAR ZPPP 242100Z 21005MPS 9999 SCT023 BKN036 18/15 Q1020 NOSIG
04:00
V
18 °C 10 km+ 3,600 ft 210° 210° 11 kt METAR ZPPP 242000Z 21006MPS 9999 SCT023 BKN036 18/15 Q1020 NOSIG
03:00
V
19 °C 10 km+ 3,600 ft 210° 210° 9 kt METAR ZPPP 241900Z 21005MPS 9999 SCT023 BKN036 19/15 Q1020 NOSIG
02:00
V
19 °C 10 km+ 3,600 ft 200° 200° 9 kt METAR ZPPP 241800Z 20005MPS 9999 SCT023 BKN036 19/15 Q1020 NOSIG
01:00
V
19 °C 10 km+ - 200° 200° 5 kt METAR ZPPP 241700Z 20003MPS 9999 FEW026 19/14 Q1021 NOSIG
00:00
V
20 °C 10 km+ - 200° 200° 5 kt METAR ZPPP 241600Z 20003MPS 9999 FEW026 20/14 Q1021 NOSIG

May 24, 2024

Time Code Weather Temp. Visibility Ceiling Wind METAR/SPECI
23:00
V
19 °C 10 km+ - 210° 210° 5 kt METAR ZPPP 241500Z 21003MPS CAVOK 19/13 Q1020 NOSIG
22:00
V
20 °C 10 km+ - 200° 200° 5 kt METAR ZPPP 241400Z 20003MPS CAVOK 20/13 Q1020 NOSIG
21:00
V
22 °C 10 km+ - 190° 190° 7 kt METAR ZPPP 241300Z 19004MPS CAVOK 22/13 Q1019 NOSIG
20:00
V
23 °C 10 km+ - 200° 200° 9 kt METAR ZPPP 241200Z 20005MPS CAVOK 23/13 Q1018 NOSIG
19:00
V
24 °C 10 km+ - 220° 220° 11 kt METAR ZPPP 241100Z 22006MPS 9999 FEW026 24/12 Q1018 NOSIG
18:00
V
25 °C 10 km+ - 240° 240° 13 kt METAR ZPPP 241000Z 24007MPS 9999 FEW026TCU FEW026 SCT040 25/12 Q1018 NOSIG
17:00
V
25 °C 10 km+ - 230° 230° 11 kt METAR ZPPP 240900Z 23006MPS 200V260 9999 FEW026TCU FEW026 SCT040 25/13 Q1018 NOSIG
16:00
V
27 °C 10 km+ - 190° 190° 11 kt METAR ZPPP 240800Z 19006MPS 160V220 9999 FEW026TCU FEW026 27/13 Q1018 NOSIG
15:00
V
27 °C 10 km+ - 240° 240° 11 kt METAR ZPPP 240700Z 24006MPS 210V270 9999 FEW026TCU FEW026 27/11 Q1019 NOSIG
14:00
V
26 °C 10 km+ - 260° 260° 7 - 17 kt METAR ZPPP 240600Z 26004G09MPS 220V290 9999 FEW026TCU FEW026 26/11 Q1020 NOSIG
13:00
V
25 °C 10 km+ - 210° 210° 7 kt METAR ZPPP 240500Z 21004MPS 160V250 9999 FEW026TCU FEW026 25/13 Q1021 NOSIG
12:00
V
22 °C 10 km+ - 210° 210° 7 kt METAR ZPPP 240400Z 21004MPS 9999 SCT026 22/14 Q1022 NOSIG
11:00
M
21 °C 10 km+ 2,300 ft 220° 220° 7 kt METAR ZPPP 240300Z 22004MPS 190V260 9999 BKN023 21/14 Q1022 NOSIG
10:00
M
20 °C 10 km+ 2,000 ft 210° 210° 7 kt METAR ZPPP 240200Z 21004MPS 160V240 9999 BKN020 SCT040 20/14 Q1023 NOSIG
09:00
V
18 °C 10 km+ - 210° 210° 5 kt METAR ZPPP 240100Z 21003MPS 9999 SCT020 18/14 Q1022 NOSIG
08:00
V
16 °C 10 km+ - 200° 200° 3 kt METAR ZPPP 240000Z 20002MPS 170V230 9999 SCT020 16/14 Q1022 NOSIG
07:00
V
14 °C 8 km - 360° 360° 0 kt METAR ZPPP 232300Z 00000MPS 8000 SCT020 14/12 Q1022 NOSIG
06:00
V
14 °C 8 km - 360° 360° 0 kt METAR ZPPP 232200Z 00000MPS 8000 NSC 14/12 Q1021 NOSIG
05:00
M
14 °C 7 km - 360° 360° 0 kt METAR ZPPP 232100Z 00000MPS 7000 NSC 14/12 Q1021 NOSIG
04:00
V
14 °C 8 km - 360° 360° 0 kt METAR ZPPP 232000Z 00000MPS 8000 NSC 14/12 Q1021 NOSIG
03:00
V
15 °C 8 km - 360° 360° 0 kt METAR ZPPP 231900Z 00000MPS 8000 NSC 15/13 Q1021 NOSIG
02:00
V
15 °C 8 km - 360° 360° 0 kt METAR ZPPP 231800Z 00000MPS 8000 NSC 15/13 Q1021 NOSIG
01:00
V
16 °C 9 km - Var Var 1 kt METAR ZPPP 231700Z VRB01MPS 9000 NSC 16/13 Q1022 NOSIG
00:00
V
17 °C 10 km+ - 360° 360° 0 kt METAR ZPPP 231600Z 00000MPS CAVOK 17/13 Q1022 NOSIG

May 23, 2024

Time Code Weather Temp. Visibility Ceiling Wind METAR/SPECI
23:00
V
17 °C 10 km+ - 220° 220° 3 kt METAR ZPPP 231500Z 22002MPS 9999 FEW030 17/13 Q1022 NOSIG
22:00
V
19 °C 10 km+ - 190° 190° 7 kt METAR ZPPP 231400Z 19004MPS 9999 SCT030 19/13 Q1021 NOSIG
21:00
V
19 °C 10 km+ - 220° 220° 5 kt METAR ZPPP 231300Z 22003MPS 9999 SCT030 19/12 Q1020 NOSIG
20:00
V
20 °C 10 km+ - 360° 360° 3 kt METAR ZPPP 231200Z 36002MPS 330V060 9999 -SHRA FEW030TCU SCT030 20/11 Q1019 NOSIG
19:00
V
23 °C 10 km+ - 120° 120° 3 kt METAR ZPPP 231100Z 12002MPS 080V160 9999 FEW030TCU SCT030 23/11 Q1018 RETS NOSIG
18:00
V
22 °C 10 km+ - 160° 160° 9 kt METAR ZPPP 231000Z 16005MPS 9999 TS FEW030TCU FEW030 22/11 Q1018 BECMG TL1020 NSW
17:00
V
21 °C 10 km+ - 160° 160° 17 kt METAR ZPPP 230900Z 16009MPS 9999 FEW030TCU SCT030 21/09 Q1018 BECMG TL0920 TS
16:00
V
25 °C 10 km+ - 270° 270° 7 kt METAR ZPPP 230800Z 27004MPS 200V360 9999 FEW030TCU SCT030 25/10 Q1018 BECMG TL0920 TS
15:00
V
26 °C 10 km+ - 210° 210° 7 kt METAR ZPPP 230700Z 21004MPS 130V270 9999 FEW030TCU SCT030 26/11 Q1019 NOSIG
14:00
V
25 °C 10 km+ - Var Var 5 kt METAR ZPPP 230600Z VRB03MPS 9999 FEW030TCU SCT030 25/11 Q1020 NOSIG
Report a change